Time;durP1;ratioP1;P1;durP2;ratioP2;P2;SDS_P1;SDS_P2;PMS_P1;PMS_P2;Temp;Humidity;BMP_temperature;BMP_pressure;BME280_temperature;BME280_humidity;BME280_pressure;Samples;Min_cycle;Max_cycle;Signal;HPM_P1;HPM_P2
2022/12/21 00:01:14;;;;;;;;;;;;;;;;;;4942193;29;1385;-76
2022/12/21 00:03:41;;;;;;;;;;;;;;;;;;4964129;28;1156;-77
2022/12/21 00:06:07;;;;;;;;;;;;;;;;;;4969778;28;1285;-77
2022/12/21 00:08:35;;;;;;;;;;;;;;;;;;4969211;28;1389;-77
2022/12/21 00:11:01;;;;;;;;;;;;;;;;;;4938665;28;1362;-76
2022/12/21 00:13:28;;;;;;;;;;;;;;;;;;4921812;29;1250;-74
2022/12/21 00:15:57;;;;;;;;;;;;;;;;;;4915239;29;1332;-74
2022/12/21 00:18:25;;;;;;;;;;;;;;;;;;4929066;29;1969;-76
2022/12/21 00:21:01;;;;;;;;;;;;;;;;;;4917883;29;1045;-77
2022/12/21 00:23:27;;;;;;;;;;;;;;;;;;4918117;29;1096;-78
2022/12/21 00:25:53;;;;;;;;;;;;;;;;;;4935674;29;1142;-78
2022/12/21 00:28:19;;;;;;;;;;;;;;;;;;4916677;29;1308;-77
2022/12/21 00:30:46;;;;;;;;;;;;;;;;;;4928960;29;1305;-77
2022/12/21 00:33:12;;;;;;;;;;;;;;;;;;4944576;29;1153;-77
2022/12/21 00:35:40;;;;;;;;;;;;;;;;;;4969237;28;1309;-77
2022/12/21 00:38:06;;;;;;;;;;;;;;;;;;4967641;28;1969;-77
2022/12/21 00:40:32;;;;;;;;;;;;;;;;;;4951502;28;1141;-76
2022/12/21 00:42:59;;;;;;;;;;;;;;;;;;4951373;28;1201;-77
2022/12/21 00:45:25;;;;;;;;;;;;;;;;;;4951596;28;1210;-76
2022/12/21 00:47:51;;;;;;;;;;;;;;;;;;4950001;28;1315;-76
2022/12/21 00:50:17;;;;;;;;;;;;;;;;;;4952672;28;826;-77
2022/12/21 00:52:45;;;;;;;;;;;;;;;;;;4951281;28;1228;-77
2022/12/21 00:55:11;;;;;;;;;;;;;;;;;;4969403;28;1300;-77
2022/12/21 00:57:38;;;;;;;;;;;;;;;;;;4953435;29;1907;-76
2022/12/21 01:00:04;;;;;;;;;;;;;;;;;;4953069;28;1491;-77
2022/12/21 01:02:31;;;;;;;;;;;;;;;;;;4944447;28;1099;-77
2022/12/21 01:04:57;;;;;;;;;;;;;;;;;;4953296;29;1296;-77
2022/12/21 01:07:23;;;;;;;;;;;;;;;;;;4953759;28;1107;-77
2022/12/21 01:09:51;;;;;;;;;;;;;;;;;;4955251;28;1311;-77
2022/12/21 01:12:17;;;;;;;;;;;;;;;;;;4974559;28;1184;-77
2022/12/21 01:14:43;;;;;;;;;;;;;;;;;;4948462;29;1118;-76
2022/12/21 01:17:10;;;;;;;;;;;;;;;;;;4938158;29;1091;-77
2022/12/21 01:19:36;;;;;;;;;;;;;;;;;;4937492;29;1980;-77
2022/12/21 01:22:02;;;;;;;;;;;;;;;;;;4936581;29;1324;-77
2022/12/21 01:24:29;;;;;;;;;;;;;;;;;;4937117;29;1155;-76
2022/12/21 01:26:56;;;;;;;;;;;;;;;;;;4937358;29;1141;-76
2022/12/21 01:29:23;;;;;;;;;;;;;;;;;;4938359;29;1303;-77
2022/12/21 01:31:49;;;;;;;;;;;;;;;;;;4959723;28;1514;-78
2022/12/21 01:34:15;;;;;;;;;;;;;;;;;;4938765;29;1155;-76
2022/12/21 01:36:41;;;;;;;;;;;;;;;;;;4936984;29;1157;-76
2022/12/21 01:39:08;;;;;;;;;;;;;;;;;;4936823;29;1911;-75
2022/12/21 01:41:34;;;;;;;;;;;;;;;;;;4936252;29;1194;-75
2022/12/21 01:44:02;;;;;;;;;;;;;;;;;;4936865;29;1261;-76
2022/12/21 01:46:29;;;;;;;;;;;;;;;;;;4951116;28;1337;-76
2022/12/21 01:49:01;;;;;;;;;;;;;;;;;;4952919;28;1313;-76
2022/12/21 01:51:27;;;;;;;;;;;;;;;;;;4952208;28;1172;-76
2022/12/21 01:53:54;;;;;;;;;;;;;;;;;;4937398;29;1104;-76
2022/12/21 01:56:20;;;;;;;;;;;;;;;;;;4936723;29;1155;-76
2022/12/21 01:58:47;;;;;;;;;;;;;;;;;;4952744;28;1978;-76
2022/12/21 02:01:14;;;;;;;;;;;;;;;;;;4947469;29;1126;-76
2022/12/21 02:03:41;;;;;;;;;;;;;;;;;;4961737;29;1157;-76
2022/12/21 02:06:08;;;;;;;;;;;;;;;;;;4983515;28;1575;-76
2022/12/21 02:08:35;;;;;;;;;;;;;;;;;;4977627;28;1301;-77
2022/12/21 02:11:01;;;;;;;;;;;;;;;;;;4971642;28;1148;-77
2022/12/21 02:13:27;;;;;;;;;;;;;;;;;;4970836;28;1385;-76
2022/12/21 02:16:00;;;;;;;;;;;;;;;;;;4971455;28;1353;-77
2022/12/21 02:18:32;;;;;;;;;;;;;;;;;;4971346;28;1907;-76
2022/12/21 02:21:06;;;;;;;;;;;;;;;;;;4956651;28;922;-76
2022/12/21 02:23:47;;;;;;;;;;;;;;;;;;4954109;29;1096;-76
2022/12/21 02:26:38;;;;;;;;;;;;;;;;;;4933969;29;1387;-76
2022/12/21 02:29:13;;;;;;;;;;;;;;;;;;4950835;28;1296;-76
2022/12/21 02:31:41;;;;;;;;;;;;;;;;;;4948281;29;1102;-76
2022/12/21 02:34:10;;;;;;;;;;;;;;;;;;4969403;28;1156;-75
2022/12/21 02:36:39;;;;;;;;;;;;;;;;;;4971138;28;1433;-75
2022/12/21 02:39:08;;;;;;;;;;;;;;;;;;4970689;28;1910;-75
2022/12/21 02:41:40;;;;;;;;;;;;;;;;;;4970400;28;1173;-76
2022/12/21 02:44:13;;;;;;;;;;;;;;;;;;4954843;29;1525;-75
2022/12/21 02:46:42;;;;;;;;;;;;;;;;;;4953112;28;1279;-75
2022/12/21 02:49:09;;;;;;;;;;;;;;;;;;4970704;28;1368;-76
2022/12/21 02:51:37;;;;;;;;;;;;;;;;;;4969900;28;1348;-75
2022/12/21 02:54:04;;;;;;;;;;;;;;;;;;4970689;28;1199;-75
2022/12/21 02:56:30;;;;;;;;;;;;;;;;;;4954800;29;1336;-75
2022/12/21 02:58:56;;;;;;;;;;;;;;;;;;4954685;28;1976;-75
2022/12/21 03:01:28;;;;;;;;;;;;;;;;;;4951122;29;1068;-75
2022/12/21 03:04:05;;;;;;;;;;;;;;;;;;4951308;28;1386;-75
2022/12/21 03:06:39;;;;;;;;;;;;;;;;;;4970856;28;1176;-74
2022/12/21 03:09:07;;;;;;;;;;;;;;;;;;4970455;28;1385;-74
2022/12/21 03:11:35;;;;;;;;;;;;;;;;;;4953555;29;1169;-74
2022/12/21 03:14:03;;;;;;;;;;;;;;;;;;4969870;28;1252;-74
2022/12/21 03:16:30;;;;;;;;;;;;;;;;;;4937127;29;1303;-74
2022/12/21 03:18:58;;;;;;;;;;;;;;;;;;4936190;29;1903;-75
2022/12/21 03:21:27;;;;;;;;;;;;;;;;;;4934518;29;1244;-73
2022/12/21 03:23:54;;;;;;;;;;;;;;;;;;4935127;29;1083;-75
2022/12/21 03:26:21;;;;;;;;;;;;;;;;;;4935147;29;1334;-75
2022/12/21 03:28:48;;;;;;;;;;;;;;;;;;4935871;29;1450;-74
2022/12/21 03:31:15;;;;;;;;;;;;;;;;;;4942352;29;1538;-74
2022/12/21 03:33:41;;;;;;;;;;;;;;;;;;4964187;28;1413;-75
2022/12/21 03:36:09;;;;;;;;;;;;;;;;;;4970082;28;1141;-74
2022/12/21 03:38:37;;;;;;;;;;;;;;;;;;4953873;28;1911;-74
2022/12/21 03:41:04;;;;;;;;;;;;;;;;;;4955047;29;958;-74
2022/12/21 03:43:31;;;;;;;;;;;;;;;;;;4954162;29;1069;-74
2022/12/21 03:45:58;;;;;;;;;;;;;;;;;;4954877;29;1017;-75
2022/12/21 03:48:25;;;;;;;;;;;;;;;;;;4952011;28;1294;-75
2022/12/21 03:50:52;;;;;;;;;;;;;;;;;;4955321;28;911;-75
2022/12/21 03:53:20;;;;;;;;;;;;;;;;;;4952780;28;1220;-75
2022/12/21 03:55:48;;;;;;;;;;;;;;;;;;4970183;28;1186;-75
2022/12/21 03:58:14;;;;;;;;;;;;;;;;;;4969540;28;1449;-75
2022/12/21 04:00:42;;;;;;;;;;;;;;;;;;4953229;29;1975;-75
2022/12/21 04:03:09;;;;;;;;;;;;;;;;;;4960908;28;1132;-74
2022/12/21 04:05:36;;;;;;;;;;;;;;;;;;4953638;28;1375;-74
2022/12/21 04:08:02;;;;;;;;;;;;;;;;;;4953839;28;1293;-75
2022/12/21 04:10:29;;;;;;;;;;;;;;;;;;4954852;29;1546;-76
2022/12/21 04:12:55;;;;;;;;;;;;;;;;;;4953031;28;1174;-75
2022/12/21 04:15:23;;;;;;;;;;;;;;;;;;4953555;28;1220;-75
2022/12/21 04:17:50;;;;;;;;;;;;;;;;;;4970444;28;1144;-74
2022/12/21 04:20:16;;;;;;;;;;;;;;;;;;4972800;28;1911;-75
2022/12/21 04:28:12;;;;;;;;;;;;;;;;;;4953151;28;1378;-75
2022/12/21 04:30:39;;;;;;;;;;;;;;;;;;4969146;28;1157;-74
2022/12/21 04:33:06;;;;;;;;;;;;;;;;;;4960548;28;1180;-76
2022/12/21 04:35:32;;;;;;;;;;;;;;;;;;4954580;29;1127;-75
2022/12/21 04:37:57;;;;;;;;;;;;;;;;;;4954482;28;1275;-75
2022/12/21 04:40:24;;;;;;;;;;;;;;;;;;4953075;29;1976;-75
2022/12/21 04:42:50;;;;;;;;;;;;;;;;;;4952293;29;1090;-74
2022/12/21 04:45:18;;;;;;;;;;;;;;;;;;4952952;28;1419;-74
2022/12/21 04:47:44;;;;;;;;;;;;;;;;;;4973263;28;1153;-75
2022/12/21 04:50:11;;;;;;;;;;;;;;;;;;4973896;28;1277;-75
2022/12/21 04:52:37;;;;;;;;;;;;;;;;;;4971929;28;1137;-75
2022/12/21 04:55:03;;;;;;;;;;;;;;;;;;4956599;29;1122;-74
2022/12/21 04:57:30;;;;;;;;;;;;;;;;;;4972935;28;1354;-74
2022/12/21 04:59:56;;;;;;;;;;;;;;;;;;4972342;28;1918;-74
2022/12/21 05:02:24;;;;;;;;;;;;;;;;;;4947668;28;1153;-75
2022/12/21 05:04:50;;;;;;;;;;;;;;;;;;4972845;28;1145;-74
2022/12/21 05:07:17;;;;;;;;;;;;;;;;;;4956615;28;1167;-74
2022/12/21 05:09:44;;;;;;;;;;;;;;;;;;4957779;28;1376;-73
2022/12/21 05:12:10;;;;;;;;;;;;;;;;;;4957239;29;1158;-75
2022/12/21 05:14:36;;;;;;;;;;;;;;;;;;4958316;28;752;-74
2022/12/21 05:17:02;;;;;;;;;;;;;;;;;;4957672;28;1132;-72
2022/12/21 05:19:30;;;;;;;;;;;;;;;;;;4957313;28;1898;-73
2022/12/21 05:21:56;;;;;;;;;;;;;;;;;;4956812;28;1041;-75
2022/12/21 05:24:22;;;;;;;;;;;;;;;;;;4956106;29;1157;-74
2022/12/21 05:26:49;;;;;;;;;;;;;;;;;;4949233;29;2018;-75
2022/12/21 05:29:15;;;;;;;;;;;;;;;;;;4936618;29;1391;-74
2022/12/21 05:31:41;;;;;;;;;;;;;;;;;;4943807;29;1443;-75
2022/12/21 05:34:08;;;;;;;;;;;;;;;;;;4955472;28;1101;-75
2022/12/21 05:36:35;;;;;;;;;;;;;;;;;;4957197;28;1089;-74
2022/12/21 05:39:01;;;;;;;;;;;;;;;;;;4956642;28;1903;-75
2022/12/21 05:41:28;;;;;;;;;;;;;;;;;;4955124;28;1138;-75
2022/12/21 05:43:54;;;;;;;;;;;;;;;;;;4956920;28;756;-75
2022/12/21 05:46:21;;;;;;;;;;;;;;;;;;4955728;28;1325;-75
2022/12/21 05:48:47;;;;;;;;;;;;;;;;;;4947006;28;1776;-75
2022/12/21 05:51:14;;;;;;;;;;;;;;;;;;4951567;29;1302;-74
2022/12/21 05:53:42;;;;;;;;;;;;;;;;;;4968857;28;1257;-74
2022/12/21 05:56:08;;;;;;;;;;;;;;;;;;4945278;29;1509;-72
2022/12/21 05:58:35;;;;;;;;;;;;;;;;;;4944794;28;1301;-72
2022/12/21 06:01:01;;;;;;;;;;;;;;;;;;4872729;28;1999;-73
2022/12/21 06:03:28;;;;;;;;;;;;;;;;;;4836212;29;1070;-72
2022/12/21 06:06:02;;;;;;;;;;;;;;;;;;4811911;29;1257;-72
2022/12/21 06:08:32;;;;;;;;;;;;;;;;;;4821860;29;1354;-75
2022/12/21 06:11:04;;;;;;;;;;;;;;;;;;4813650;29;1555;-73
2022/12/21 06:13:37;;;;;;;;;;;;;;;;;;4835547;29;1092;-73
2022/12/21 06:16:07;;;;;;;;;;;;;;;;;;4817650;29;1397;-73
2022/12/21 06:18:37;;;;;;;;;;;;;;;;;;4829519;29;1369;-73
2022/12/21 06:21:09;;;;;;;;;;;;;;;;;;4816091;29;1950;-73
2022/12/21 06:23:44;;;;;;;;;;;;;;;;;;4820156;29;1443;-75
2022/12/21 06:26:16;;;;;;;;;;;;;;;;;;4825155;29;1606;-76
2022/12/21 06:28:46;;;;;;;;;;;;;;;;;;4848932;29;1291;-72
2022/12/21 06:31:13;;;;;;;;;;;;;;;;;;4932800;29;1479;-72
2022/12/21 06:33:39;;;;;;;;;;;;;;;;;;4940054;28;1434;-72
2022/12/21 06:36:07;;;;;;;;;;;;;;;;;;4945586;29;1367;-72
2022/12/21 06:38:33;;;;;;;;;;;;;;;;;;4936368;29;1295;-72
2022/12/21 06:41:00;;;;;;;;;;;;;;;;;;4951327;29;1979;-72
2022/12/21 06:43:28;;;;;;;;;;;;;;;;;;4948858;28;1482;-73
2022/12/21 06:45:55;;;;;;;;;;;;;;;;;;4917337;29;1224;-71
2022/12/21 06:48:21;;;;;;;;;;;;;;;;;;4922052;28;1480;-74
2022/12/21 06:50:51;;;;;;;;;;;;;;;;;;4934374;29;1199;-74
2022/12/21 06:53:17;;;;;;;;;;;;;;;;;;4954048;28;1573;-72
2022/12/21 06:55:43;;;;;;;;;;;;;;;;;;4933114;29;1747;-73
2022/12/21 06:58:09;;;;;;;;;;;;;;;;;;4943913;28;1886;-73
2022/12/21 07:00:37;;;;;;;;;;;;;;;;;;4936029;29;1974;-72
2022/12/21 07:03:03;;;;;;;;;;;;;;;;;;4931723;29;1610;-72
2022/12/21 07:05:30;;;;;;;;;;;;;;;;;;4925789;29;1594;-74
2022/12/21 07:07:57;;;;;;;;;;;;;;;;;;4937300;29;2204;-74
2022/12/21 07:10:23;;;;;;;;;;;;;;;;;;4945797;28;1219;-73
2022/12/21 07:12:50;;;;;;;;;;;;;;;;;;4961201;28;1803;-74
2022/12/21 07:15:16;;;;;;;;;;;;;;;;;;4933489;28;1510;-74
2022/12/21 07:17:43;;;;;;;;;;;;;;;;;;4942150;29;1779;-73
2022/12/21 07:20:10;;;;;;;;;;;;;;;;;;4941864;29;1975;-75
2022/12/21 07:22:36;;;;;;;;;;;;;;;;;;4940565;29;1490;-74
2022/12/21 07:25:03;;;;;;;;;;;;;;;;;;4937444;29;1905;-73
2022/12/21 07:27:29;;;;;;;;;;;;;;;;;;4961741;28;1246;-73
2022/12/21 07:29:55;;;;;;;;;;;;;;;;;;4937771;28;1765;-75
2022/12/21 07:32:22;;;;;;;;;;;;;;;;;;4943909;28;1360;-73
2022/12/21 07:34:49;;;;;;;;;;;;;;;;;;4932526;29;1860;-74
2022/12/21 07:37:15;;;;;;;;;;;;;;;;;;4933136;29;1289;-74
2022/12/21 07:39:42;;;;;;;;;;;;;;;;;;4929165;29;1947;-73
2022/12/21 07:42:08;;;;;;;;;;;;;;;;;;4929130;29;1230;-74
2022/12/21 07:44:34;;;;;;;;;;;;;;;;;;4926543;29;1478;-74
2022/12/21 07:47:14;;;;;;;;;;;;;;;;;;4930745;29;1433;-75
2022/12/21 07:49:40;;;;;;;;;;;;;;;;;;4931162;29;1701;-75
2022/12/21 07:52:08;;;;;;;;;;;;;;;;;;4935284;29;1093;-74
2022/12/21 07:54:34;;;;;;;;;;;;;;;;;;4954043;28;1791;-74
2022/12/21 07:57:00;;;;;;;;;;;;;;;;;;4930845;29;1579;-72
2022/12/21 07:59:27;;;;;;;;;;;;;;;;;;4948688;28;2613;-72
2022/12/21 08:01:53;;;;;;;;;;;;;;;;;;4948310;28;1972;-73
2022/12/21 08:04:20;;;;;;;;;;;;;;;;;;4939305;29;1573;-74
2022/12/21 08:06:46;;;;;;;;;;;;;;;;;;4942897;29;1171;-73
2022/12/21 08:09:14;;;;;;;;;;;;;;;;;;4934288;29;1692;-73
2022/12/21 08:11:40;;;;;;;;;;;;;;;;;;4940021;29;1617;-73
2022/12/21 08:14:06;;;;;;;;;;;;;;;;;;4940020;29;1269;-73
2022/12/21 08:16:33;;;;;;;;;;;;;;;;;;4937167;29;2009;-74
2022/12/21 08:18:59;;;;;;;;;;;;;;;;;;4947681;28;1374;-73
2022/12/21 08:21:26;;;;;;;;;;;;;;;;;;4962833;28;1919;-73
2022/12/21 08:23:52;;;;;;;;;;;;;;;;;;4938829;29;1859;-74
2022/12/21 08:26:19;;;;;;;;;;;;;;;;;;4942240;29;1610;-74
2022/12/21 08:28:47;;;;;;;;;;;;;;;;;;4941593;29;1479;-74
2022/12/21 08:31:13;;;;;;;;;;;;;;;;;;4945709;29;1479;-73
2022/12/21 08:33:41;;;;;;;;;;;;;;;;;;4944018;29;1069;-72
2022/12/21 08:36:09;;;;;;;;;;;;;;;;;;4955415;28;1360;-75
2022/12/21 08:38:35;;;;;;;;;;;;;;;;;;4953037;28;1312;-74
2022/12/21 08:41:02;;;;;;;;;;;;;;;;;;4937516;29;1939;-74
2022/12/21 08:43:30;;;;;;;;;;;;;;;;;;4959144;28;1788;-74
2022/12/21 08:45:56;;;;;;;;;;;;;;;;;;4969951;28;1215;-74
2022/12/21 08:48:22;;;;;;;;;;;;;;;;;;4953381;28;1834;-73
2022/12/21 08:50:50;;;;;;;;;;;;;;;;;;4950916;29;1231;-75
2022/12/21 08:53:16;;;;;;;;;;;;;;;;;;4948364;28;1479;-74
2022/12/21 08:55:42;;;;;;;;;;;;;;;;;;4936615;29;1117;-73
2022/12/21 08:58:09;;;;;;;;;;;;;;;;;;4956787;28;1660;-74
2022/12/21 09:00:37;;;;;;;;;;;;;;;;;;4930058;29;1910;-74
2022/12/21 09:03:06;;;;;;;;;;;;;;;;;;4945480;29;1412;-74
2022/12/21 09:05:32;;;;;;;;;;;;;;;;;;4938721;29;1532;-74
2022/12/21 09:07:59;;;;;;;;;;;;;;;;;;4956551;28;1290;-74
2022/12/21 09:10:25;;;;;;;;;;;;;;;;;;4944193;29;1505;-74
2022/12/21 09:12:51;;;;;;;;;;;;;;;;;;4943426;29;1177;-73
2022/12/21 09:15:18;;;;;;;;;;;;;;;;;;4940911;29;1675;-74
2022/12/21 09:17:45;;;;;;;;;;;;;;;;;;4948246;29;1549;-73
2022/12/21 09:20:12;;;;;;;;;;;;;;;;;;4940957;28;1935;-73
2022/12/21 09:22:38;;;;;;;;;;;;;;;;;;4941500;28;1772;-75
2022/12/21 09:25:05;;;;;;;;;;;;;;;;;;4934870;29;1330;-73
2022/12/21 09:27:31;;;;;;;;;;;;;;;;;;4939148;29;1440;-74
2022/12/21 09:29:58;;;;;;;;;;;;;;;;;;4933503;29;1513;-73
2022/12/21 09:32:24;;;;;;;;;;;;;;;;;;4934805;29;1399;-72
2022/12/21 09:34:52;;;;;;;;;;;;;;;;;;4944482;29;1827;-73
2022/12/21 09:37:18;;;;;;;;;;;;;;;;;;4941713;29;1591;-72
2022/12/21 09:39:45;;;;;;;;;;;;;;;;;;4937476;29;1518;-73
2022/12/21 09:42:18;;;;;;;;;;;;;;;;;;4944384;28;1980;-73
2022/12/21 09:44:51;;;;;;;;;;;;;;;;;;4943828;29;1057;-74
2022/12/21 09:47:19;;;;;;;;;;;;;;;;;;4959441;28;1471;-73
2022/12/21 09:49:46;;;;;;;;;;;;;;;;;;4942031;29;1456;-73
2022/12/21 09:52:17;;;;;;;;;;;;;;;;;;4937572;28;1585;-74
2022/12/21 09:54:44;;;;;;;;;;;;;;;;;;4931580;29;1512;-75
2022/12/21 09:57:10;;;;;;;;;;;;;;;;;;4936444;29;1301;-73
2022/12/21 09:59:37;;;;;;;;;;;;;;;;;;4935363;29;1466;-73
2022/12/21 10:02:05;;;;;;;;;;;;;;;;;;4934531;29;1907;-73
2022/12/21 10:04:39;;;;;;;;;;;;;;;;;;4956183;28;2165;-73
2022/12/21 10:07:10;;;;;;;;;;;;;;;;;;4961565;28;1334;-73
2022/12/21 10:09:50;;;;;;;;;;;;;;;;;;4936517;29;1653;-75
2022/12/21 10:12:19;;;;;;;;;;;;;;;;;;4938177;29;2286;-74
2022/12/21 10:14:49;;;;;;;;;;;;;;;;;;4934904;29;1654;-75
2022/12/21 10:17:18;;;;;;;;;;;;;;;;;;4948551;29;1601;-75
2022/12/21 10:19:48;;;;;;;;;;;;;;;;;;4949182;28;1310;-74
2022/12/21 10:22:15;;;;;;;;;;;;;;;;;;4936198;29;1975;-75
2022/12/21 10:24:42;;;;;;;;;;;;;;;;;;4953713;28;1380;-74
2022/12/21 10:27:11;;;;;;;;;;;;;;;;;;4941085;29;1551;-74
2022/12/21 10:29:38;;;;;;;;;;;;;;;;;;4933715;29;1488;-74
2022/12/21 10:32:05;;;;;;;;;;;;;;;;;;4931439;29;1574;-72
2022/12/21 10:34:32;;;;;;;;;;;;;;;;;;4941827;29;1618;-72
2022/12/21 10:36:59;;;;;;;;;;;;;;;;;;4959270;28;1795;-73
2022/12/21 10:39:26;;;;;;;;;;;;;;;;;;4963248;28;1716;-73
2022/12/21 10:41:53;;;;;;;;;;;;;;;;;;4942770;28;1980;-74
2022/12/21 10:44:21;;;;;;;;;;;;;;;;;;4941111;29;1557;-73
2022/12/21 10:46:47;;;;;;;;;;;;;;;;;;4936596;29;1666;-74
2022/12/21 10:49:16;;;;;;;;;;;;;;;;;;4942728;29;1456;-74
2022/12/21 10:51:42;;;;;;;;;;;;;;;;;;4924464;29;1294;-75
2022/12/21 10:54:09;;;;;;;;;;;;;;;;;;4951995;28;1494;-74
2022/12/21 10:56:36;;;;;;;;;;;;;;;;;;4945940;29;1324;-74
2022/12/21 10:59:06;;;;;;;;;;;;;;;;;;4958924;28;1875;-74
2022/12/21 11:01:34;;;;;;;;;;;;;;;;;;4934104;29;1978;-74
2022/12/21 11:04:08;;;;;;;;;;;;;;;;;;4957717;28;1519;-73
2022/12/21 11:06:34;;;;;;;;;;;;;;;;;;4959235;28;1211;-74
2022/12/21 11:09:01;;;;;;;;;;;;;;;;;;4936537;29;1493;-75
2022/12/21 11:11:28;;;;;;;;;;;;;;;;;;4937620;28;1813;-71
2022/12/21 11:13:56;;;;;;;;;;;;;;;;;;4948535;28;1337;-71
2022/12/21 11:16:23;;;;;;;;;;;;;;;;;;4955206;28;1224;-72
2022/12/21 11:18:50;;;;;;;;;;;;;;;;;;4932785;29;1522;-71
2022/12/21 11:21:22;;;;;;;;;;;;;;;;;;4945489;28;1918;-71
2022/12/21 11:23:56;;;;;;;;;;;;;;;;;;4949609;29;1254;-72
2022/12/21 11:26:22;;;;;;;;;;;;;;;;;;4970349;28;1159;-70
2022/12/21 11:28:49;;;;;;;;;;;;;;;;;;4955086;28;1310;-71
2022/12/21 11:31:15;;;;;;;;;;;;;;;;;;4950705;29;1216;-70
2022/12/21 11:33:43;;;;;;;;;;;;;;;;;;4949139;28;1419;-72
2022/12/21 11:36:12;;;;;;;;;;;;;;;;;;4954466;29;1237;-71
2022/12/21 11:38:39;;;;;;;;;;;;;;;;;;4937801;29;1377;-70
2022/12/21 11:41:09;;;;;;;;;;;;;;;;;;4959748;28;1981;-71
2022/12/21 11:43:43;;;;;;;;;;;;;;;;;;4942959;29;1285;-71
2022/12/21 11:46:10;;;;;;;;;;;;;;;;;;4931240;29;1247;-72
2022/12/21 11:48:38;;;;;;;;;;;;;;;;;;4934546;29;1419;-72
2022/12/21 11:51:05;;;;;;;;;;;;;;;;;;4934414;29;1130;-72
2022/12/21 11:53:50;;;;;;;;;;;;;;;;;;4933090;29;1130;-72
2022/12/21 11:56:20;;;;;;;;;;;;;;;;;;4934512;29;1138;-71
2022/12/21 11:58:51;;;;;;;;;;;;;;;;;;4934423;29;1390;-72
2022/12/21 12:01:19;;;;;;;;;;;;;;;;;;4937888;29;1919;-72
2022/12/21 12:03:49;;;;;;;;;;;;;;;;;;4927509;29;1483;-72
2022/12/21 12:06:32;;;;;;;;;;;;;;;;;;4923361;29;1405;-72
2022/12/21 12:09:08;;;;;;;;;;;;;;;;;;4947068;28;1471;-72
2022/12/21 12:11:38;;;;;;;;;;;;;;;;;;4923378;29;1594;-72
2022/12/21 12:14:08;;;;;;;;;;;;;;;;;;4937881;29;1458;-72
2022/12/21 12:16:35;;;;;;;;;;;;;;;;;;4924097;29;1221;-72
2022/12/21 12:19:04;;;;;;;;;;;;;;;;;;4924370;29;1368;-72
2022/12/21 12:21:52;;;;;;;;;;;;;;;;;;4922346;29;1911;-73
2022/12/21 12:24:24;;;;;;;;;;;;;;;;;;4923116;29;1480;-73
2022/12/21 12:26:52;;;;;;;;;;;;;;;;;;4954908;28;1254;-70
2022/12/21 12:29:22;;;;;;;;;;;;;;;;;;4938205;28;1460;-71
2022/12/21 12:31:55;;;;;;;;;;;;;;;;;;4941998;28;1258;-71
2022/12/21 12:34:26;;;;;;;;;;;;;;;;;;4940117;29;1269;-70
2022/12/21 12:36:55;;;;;;;;;;;;;;;;;;4923667;29;1333;-71
2022/12/21 12:39:24;;;;;;;;;;;;;;;;;;4938042;29;1401;-71
2022/12/21 12:41:51;;;;;;;;;;;;;;;;;;4922863;29;1983;-71
2022/12/21 12:44:20;;;;;;;;;;;;;;;;;;4923877;29;1258;-72
2022/12/21 12:46:53;;;;;;;;;;;;;;;;;;4954371;28;1289;-71
2022/12/21 12:49:23;;;;;;;;;;;;;;;;;;4937873;29;1440;-71
2022/12/21 12:51:51;;;;;;;;;;;;;;;;;;4938160;28;1226;-72
2022/12/21 12:54:19;;;;;;;;;;;;;;;;;;4925118;29;1297;-72
2022/12/21 12:56:48;;;;;;;;;;;;;;;;;;4949754;28;1351;-71
2022/12/21 12:59:16;;;;;;;;;;;;;;;;;;4934132;29;1412;-72
2022/12/21 13:01:44;;;;;;;;;;;;;;;;;;4929024;29;1910;-72
2022/12/21 13:04:24;;;;;;;;;;;;;;;;;;4928002;29;1113;-73
2022/12/21 13:06:53;;;;;;;;;;;;;;;;;;4959979;28;1277;-72
2022/12/21 13:09:22;;;;;;;;;;;;;;;;;;4928407;29;1480;-72
2022/12/21 13:11:53;;;;;;;;;;;;;;;;;;4928917;29;1273;-74
2022/12/21 13:14:21;;;;;;;;;;;;;;;;;;4927543;29;1226;-72
2022/12/21 13:16:49;;;;;;;;;;;;;;;;;;4943466;28;1284;-71
2022/12/21 13:19:16;;;;;;;;;;;;;;;;;;4922899;29;1491;-71
2022/12/21 13:21:43;;;;;;;;;;;;;;;;;;4956326;28;1979;-71
2022/12/21 13:24:10;;;;;;;;;;;;;;;;;;4927622;29;1233;-72
2022/12/21 13:26:37;;;;;;;;;;;;;;;;;;4928465;29;1205;-72
2022/12/21 13:29:06;;;;;;;;;;;;;;;;;;4929177;29;1370;-71
2022/12/21 13:31:34;;;;;;;;;;;;;;;;;;4931787;29;1257;-70
2022/12/21 13:34:01;;;;;;;;;;;;;;;;;;4941427;28;1225;-71
2022/12/21 13:36:28;;;;;;;;;;;;;;;;;;4941941;29;1627;-70
2022/12/21 13:38:56;;;;;;;;;;;;;;;;;;4966525;28;1383;-71
2022/12/21 13:41:24;;;;;;;;;;;;;;;;;;4951785;28;1931;-71
2022/12/21 13:43:52;;;;;;;;;;;;;;;;;;4936578;29;1110;-72
2022/12/21 13:46:20;;;;;;;;;;;;;;;;;;4936143;29;1545;-71
2022/12/21 13:48:47;;;;;;;;;;;;;;;;;;4958794;28;1394;-72
2022/12/21 13:51:24;;;;;;;;;;;;;;;;;;4943382;29;1418;-70
2022/12/21 13:53:52;;;;;;;;;;;;;;;;;;4945072;29;1475;-71
2022/12/21 13:56:21;;;;;;;;;;;;;;;;;;4916530;29;1515;-71
2022/12/21 13:58:50;;;;;;;;;;;;;;;;;;4849890;28;1334;-72
2022/12/21 14:01:20;;;;;;;;;;;;;;;;;;4825578;29;1834;-74
2022/12/21 14:03:48;;;;;;;;;;;;;;;;;;4813275;29;1962;-73
2022/12/21 14:06:41;;;;;;;;;;;;;;;;;;4821138;29;1107;-70
2022/12/21 14:09:09;;;;;;;;;;;;;;;;;;4797409;29;1601;-71
2022/12/21 14:11:40;;;;;;;;;;;;;;;;;;4849753;28;1354;-72
2022/12/21 14:14:10;;;;;;;;;;;;;;;;;;4925337;29;1208;-69
2022/12/21 14:16:38;;;;;;;;;;;;;;;;;;4942755;28;1475;-70
2022/12/21 14:19:12;;;;;;;;;;;;;;;;;;4926158;29;1337;-70
2022/12/21 14:21:44;;;;;;;;;;;;;;;;;;4926208;29;1927;-72
2022/12/21 14:24:14;;;;;;;;;;;;;;;;;;4922760;29;1371;-72
2022/12/21 14:26:42;;;;;;;;;;;;;;;;;;4925983;29;1825;-70
2022/12/21 14:29:12;;;;;;;;;;;;;;;;;;4917703;29;1410;-71
2022/12/21 14:31:47;;;;;;;;;;;;;;;;;;4922703;29;1245;-71
2022/12/21 14:34:14;;;;;;;;;;;;;;;;;;4924616;29;1394;-71
2022/12/21 14:36:41;;;;;;;;;;;;;;;;;;4924739;29;1122;-71
2022/12/21 14:39:14;;;;;;;;;;;;;;;;;;4837899;29;1495;-71
2022/12/21 14:41:41;;;;;;;;;;;;;;;;;;4880952;29;1946;-71
2022/12/21 14:44:12;;;;;;;;;;;;;;;;;;4846638;28;1130;-71
2022/12/21 14:46:39;;;;;;;;;;;;;;;;;;4841204;28;1264;-73
2022/12/21 14:49:08;;;;;;;;;;;;;;;;;;4854976;29;1378;-70
2022/12/21 14:51:36;;;;;;;;;;;;;;;;;;4847526;28;1114;-71
2022/12/21 14:54:08;;;;;;;;;;;;;;;;;;4823923;29;1794;-71
2022/12/21 14:56:36;;;;;;;;;;;;;;;;;;4829257;29;1301;-71
2022/12/21 14:59:03;;;;;;;;;;;;;;;;;;4834863;28;1569;-71
2022/12/21 15:01:34;;;;;;;;;;;;;;;;;;4828679;29;1155;-72
2022/12/21 15:04:01;;;;;;;;;;;;;;;;;;4833877;29;1915;-70
2022/12/21 15:06:31;;;;;;;;;;;;;;;;;;4842154;29;1717;-71
2022/12/21 15:09:13;;;;;;;;;;;;;;;;;;4848748;28;1819;-73
2022/12/21 15:11:40;;;;;;;;;;;;;;;;;;4833392;29;1612;-73
2022/12/21 15:14:11;;;;;;;;;;;;;;;;;;4859479;29;1231;-71
2022/12/21 15:16:38;;;;;;;;;;;;;;;;;;4822158;29;1161;-72
2022/12/21 15:19:08;;;;;;;;;;;;;;;;;;4852042;28;1298;-75
2022/12/21 15:21:40;;;;;;;;;;;;;;;;;;4883963;29;1377;-72
2022/12/21 15:24:14;;;;;;;;;;;;;;;;;;4835546;29;2017;-74
2022/12/21 15:26:52;;;;;;;;;;;;;;;;;;4826062;29;1064;-72
2022/12/21 15:29:20;;;;;;;;;;;;;;;;;;4836654;28;1385;-74
2022/12/21 15:31:48;;;;;;;;;;;;;;;;;;4846175;28;1133;-73
2022/12/21 15:34:18;;;;;;;;;;;;;;;;;;4826507;29;1149;-73
2022/12/21 15:36:49;;;;;;;;;;;;;;;;;;4820796;29;1486;-74
2022/12/21 15:39:18;;;;;;;;;;;;;;;;;;4819610;29;1287;-74
2022/12/21 15:41:46;;;;;;;;;;;;;;;;;;4822618;29;994;-73
2022/12/21 15:44:15;;;;;;;;;;;;;;;;;;4820214;29;1961;-73
2022/12/21 15:46:46;;;;;;;;;;;;;;;;;;4817083;29;1249;-74
2022/12/21 15:49:17;;;;;;;;;;;;;;;;;;4812140;29;1350;-75
2022/12/21 15:51:47;;;;;;;;;;;;;;;;;;4837192;29;2003;-75
2022/12/21 15:54:15;;;;;;;;;;;;;;;;;;4927502;29;1379;-70
2022/12/21 15:56:45;;;;;;;;;;;;;;;;;;4945709;28;1137;-71
2022/12/21 15:59:12;;;;;;;;;;;;;;;;;;4951790;28;1325;-72
2022/12/21 16:01:38;;;;;;;;;;;;;;;;;;4945499;29;1146;-71
2022/12/21 16:04:05;;;;;;;;;;;;;;;;;;4949653;29;1924;-71
2022/12/21 16:06:31;;;;;;;;;;;;;;;;;;4952066;29;1262;-72
2022/12/21 16:08:57;;;;;;;;;;;;;;;;;;4950477;28;1352;-72
2022/12/21 16:11:29;;;;;;;;;;;;;;;;;;4949495;28;1228;-70
2022/12/21 16:14:00;;;;;;;;;;;;;;;;;;4967186;28;1229;-71
2022/12/21 16:16:27;;;;;;;;;;;;;;;;;;4943427;28;3090;-71
2022/12/21 16:18:54;;;;;;;;;;;;;;;;;;4932148;29;1338;-71
2022/12/21 16:21:20;;;;;;;;;;;;;;;;;;4926634;29;2808;-71
2022/12/21 16:23:47;;;;;;;;;;;;;;;;;;4932414;29;2004;-71
2022/12/21 16:26:16;;;;;;;;;;;;;;;;;;4932580;29;1156;-72
2022/12/21 16:28:44;;;;;;;;;;;;;;;;;;4932526;29;1317;-72
2022/12/21 16:31:13;;;;;;;;;;;;;;;;;;4932594;29;1174;-72
2022/12/21 16:33:40;;;;;;;;;;;;;;;;;;4932252;29;1151;-72
2022/12/21 16:36:09;;;;;;;;;;;;;;;;;;4930851;29;3173;-71
2022/12/21 16:38:38;;;;;;;;;;;;;;;;;;4932539;29;1462;-72
2022/12/21 16:41:05;;;;;;;;;;;;;;;;;;4934091;29;1324;-72
2022/12/21 16:43:31;;;;;;;;;;;;;;;;;;4935739;28;1976;-71
2022/12/21 16:46:01;;;;;;;;;;;;;;;;;;4937110;29;1352;-72
2022/12/21 16:48:27;;;;;;;;;;;;;;;;;;4953058;28;1476;-71
2022/12/21 16:50:54;;;;;;;;;;;;;;;;;;4952759;29;1106;-72
2022/12/21 16:53:40;;;;;;;;;;;;;;;;;;4935559;29;1355;-71
2022/12/21 16:56:20;;;;;;;;;;;;;;;;;;4952490;29;1158;-71
2022/12/21 16:58:46;;;;;;;;;;;;;;;;;;4952624;28;1563;-72
2022/12/21 17:01:19;;;;;;;;;;;;;;;;;;4939344;29;1374;-72
2022/12/21 17:03:46;;;;;;;;;;;;;;;;;;4910687;29;1985;-72
2022/12/21 17:06:17;;;;;;;;;;;;;;;;;;4830500;29;1261;-74
2022/12/21 17:08:45;;;;;;;;;;;;;;;;;;4839020;29;1386;-73
2022/12/21 17:11:14;;;;;;;;;;;;;;;;;;4836369;29;1004;-73
2022/12/21 17:13:41;;;;;;;;;;;;;;;;;;4836665;29;1566;-72
2022/12/21 17:16:17;;;;;;;;;;;;;;;;;;4840533;29;1299;-73